sensor_id;sensor_type;location;lat;lon;timestamp;P1;durP1;ratioP1;P2;durP2;ratioP2
33327;SDS011;19692;52.998;9.116;2023-04-24T00:00:09;4.90;;;4.40;;
33327;SDS011;19692;52.998;9.116;2023-04-24T00:02:36;4.50;;;4.10;;
33327;SDS011;19692;52.998;9.116;2023-04-24T00:05:05;4.20;;;3.80;;
33327;SDS011;19692;52.998;9.116;2023-04-24T00:07:32;4.37;;;3.70;;
33327;SDS011;19692;52.998;9.116;2023-04-24T00:10:06;4.10;;;3.80;;
33327;SDS011;19692;52.998;9.116;2023-04-24T00:12:33;4.50;;;3.50;;
33327;SDS011;19692;52.998;9.116;2023-04-24T00:14:59;4.07;;;3.73;;
33327;SDS011;19692;52.998;9.116;2023-04-24T00:17:25;3.47;;;3.17;;
33327;SDS011;19692;52.998;9.116;2023-04-24T00:19:51;4.23;;;3.80;;
33327;SDS011;19692;52.998;9.116;2023-04-24T00:22:23;4.10;;;3.70;;
33327;SDS011;19692;52.998;9.116;2023-04-24T00:24:50;4.70;;;4.40;;
33327;SDS011;19692;52.998;9.116;2023-04-24T00:27:16;4.13;;;3.30;;
33327;SDS011;19692;52.998;9.116;2023-04-24T00:29:42;4.50;;;3.00;;
33327;SDS011;19692;52.998;9.116;2023-04-24T00:32:08;3.20;;;2.90;;
33327;SDS011;19692;52.998;9.116;2023-04-24T00:34:33;3.53;;;3.10;;
33327;SDS011;19692;52.998;9.116;2023-04-24T00:36:59;2.90;;;2.70;;
33327;SDS011;19692;52.998;9.116;2023-04-24T00:39:25;4.17;;;2.87;;
33327;SDS011;19692;52.998;9.116;2023-04-24T00:41:51;2.90;;;2.63;;
33327;SDS011;19692;52.998;9.116;2023-04-24T00:44:17;4.17;;;2.93;;
33327;SDS011;19692;52.998;9.116;2023-04-24T00:46:43;3.00;;;2.80;;
33327;SDS011;19692;52.998;9.116;2023-04-24T00:49:09;4.00;;;2.80;;
33327;SDS011;19692;52.998;9.116;2023-04-24T00:51:35;2.93;;;2.73;;
33327;SDS011;19692;52.998;9.116;2023-04-24T00:54:01;3.03;;;2.73;;
33327;SDS011;19692;52.998;9.116;2023-04-24T00:56:27;2.87;;;2.57;;
33327;SDS011;19692;52.998;9.116;2023-04-24T00:58:53;2.57;;;2.37;;
33327;SDS011;19692;52.998;9.116;2023-04-24T01:01:21;2.83;;;2.60;;
33327;SDS011;19692;52.998;9.116;2023-04-24T01:03:48;3.17;;;2.80;;
33327;SDS011;19692;52.998;9.116;2023-04-24T01:06:16;3.80;;;3.60;;
33327;SDS011;19692;52.998;9.116;2023-04-24T01:08:43;3.70;;;2.70;;
33327;SDS011;19692;52.998;9.116;2023-04-24T01:11:11;2.83;;;2.63;;
33327;SDS011;19692;52.998;9.116;2023-04-24T01:13:37;3.73;;;2.60;;
33327;SDS011;19692;52.998;9.116;2023-04-24T01:16:03;2.63;;;2.43;;
33327;SDS011;19692;52.998;9.116;2023-04-24T01:18:29;2.70;;;2.50;;
33327;SDS011;19692;52.998;9.116;2023-04-24T01:20:58;2.47;;;2.27;;
33327;SDS011;19692;52.998;9.116;2023-04-24T01:23:27;2.10;;;1.97;;
33327;SDS011;19692;52.998;9.116;2023-04-24T01:25:53;3.60;;;2.40;;
33327;SDS011;19692;52.998;9.116;2023-04-24T01:28:19;2.40;;;2.20;;
33327;SDS011;19692;52.998;9.116;2023-04-24T01:30:46;2.50;;;2.30;;
33327;SDS011;19692;52.998;9.116;2023-04-24T01:33:12;2.43;;;2.23;;
33327;SDS011;19692;52.998;9.116;2023-04-24T01:35:38;2.60;;;2.40;;
33327;SDS011;19692;52.998;9.116;2023-04-24T01:38:04;3.23;;;2.50;;
33327;SDS011;19692;52.998;9.116;2023-04-24T01:40:30;2.63;;;2.43;;
33327;SDS011;19692;52.998;9.116;2023-04-24T01:42:57;2.97;;;2.77;;
33327;SDS011;19692;52.998;9.116;2023-04-24T01:45:23;3.40;;;3.00;;
33327;SDS011;19692;52.998;9.116;2023-04-24T01:47:49;3.10;;;2.80;;
33327;SDS011;19692;52.998;9.116;2023-04-24T01:50:15;4.93;;;2.53;;
33327;SDS011;19692;52.998;9.116;2023-04-24T01:52:42;5.30;;;4.20;;
33327;SDS011;19692;52.998;9.116;2023-04-24T01:55:08;2.90;;;2.70;;
33327;SDS011;19692;52.998;9.116;2023-04-24T01:57:34;3.10;;;2.80;;
33327;SDS011;19692;52.998;9.116;2023-04-24T02:00:01;3.30;;;3.00;;
33327;SDS011;19692;52.998;9.116;2023-04-24T02:02:29;3.43;;;3.10;;
33327;SDS011;19692;52.998;9.116;2023-04-24T02:04:55;3.20;;;2.90;;
33327;SDS011;19692;52.998;9.116;2023-04-24T02:07:22;3.97;;;3.07;;
33327;SDS011;19692;52.998;9.116;2023-04-24T02:09:48;3.07;;;2.87;;
33327;SDS011;19692;52.998;9.116;2023-04-24T02:12:17;3.37;;;3.07;;
33327;SDS011;19692;52.998;9.116;2023-04-24T02:14:43;3.23;;;3.00;;
33327;SDS011;19692;52.998;9.116;2023-04-24T02:17:09;5.63;;;3.23;;
33327;SDS011;19692;52.998;9.116;2023-04-24T02:19:38;3.77;;;3.30;;
33327;SDS011;19692;52.998;9.116;2023-04-24T02:22:04;3.30;;;3.10;;
33327;SDS011;19692;52.998;9.116;2023-04-24T02:24:29;3.33;;;3.03;;
33327;SDS011;19692;52.998;9.116;2023-04-24T02:26:55;3.77;;;3.27;;
33327;SDS011;19692;52.998;9.116;2023-04-24T02:29:23;3.40;;;3.10;;
33327;SDS011;19692;52.998;9.116;2023-04-24T02:31:48;3.77;;;3.47;;
33327;SDS011;19692;52.998;9.116;2023-04-24T02:34:14;3.17;;;2.87;;
33327;SDS011;19692;52.998;9.116;2023-04-24T02:36:41;3.17;;;2.97;;
33327;SDS011;19692;52.998;9.116;2023-04-24T02:39:07;4.57;;;4.20;;
33327;SDS011;19692;52.998;9.116;2023-04-24T02:41:33;3.10;;;2.90;;
33327;SDS011;19692;52.998;9.116;2023-04-24T02:43:58;3.87;;;3.40;;
33327;SDS011;19692;52.998;9.116;2023-04-24T02:46:24;3.20;;;2.97;;
33327;SDS011;19692;52.998;9.116;2023-04-24T02:48:50;4.43;;;3.40;;
33327;SDS011;19692;52.998;9.116;2023-04-24T02:51:16;3.53;;;2.97;;
33327;SDS011;19692;52.998;9.116;2023-04-24T02:53:42;3.20;;;3.00;;
33327;SDS011;19692;52.998;9.116;2023-04-24T02:56:08;3.03;;;2.83;;
33327;SDS011;19692;52.998;9.116;2023-04-24T02:58:37;3.47;;;3.17;;
33327;SDS011;19692;52.998;9.116;2023-04-24T03:01:03;3.43;;;2.80;;
33327;SDS011;19692;52.998;9.116;2023-04-24T03:03:28;3.30;;;3.00;;
33327;SDS011;19692;52.998;9.116;2023-04-24T03:05:55;4.33;;;3.10;;
33327;SDS011;19692;52.998;9.116;2023-04-24T03:08:21;3.27;;;3.07;;
33327;SDS011;19692;52.998;9.116;2023-04-24T03:10:48;3.27;;;2.97;;
33327;SDS011;19692;52.998;9.116;2023-04-24T03:13:15;3.20;;;3.00;;
33327;SDS011;19692;52.998;9.116;2023-04-24T03:15:41;3.40;;;3.10;;
33327;SDS011;19692;52.998;9.116;2023-04-24T03:18:07;3.80;;;2.73;;
33327;SDS011;19692;52.998;9.116;2023-04-24T03:20:33;2.67;;;2.47;;
33327;SDS011;19692;52.998;9.116;2023-04-24T03:22:58;2.60;;;2.40;;
33327;SDS011;19692;52.998;9.116;2023-04-24T03:25:24;4.50;;;4.10;;
33327;SDS011;19692;52.998;9.116;2023-04-24T03:27:57;2.50;;;2.30;;
33327;SDS011;19692;52.998;9.116;2023-04-24T03:30:22;4.60;;;3.40;;
33327;SDS011;19692;52.998;9.116;2023-04-24T03:32:48;4.03;;;2.50;;
33327;SDS011;19692;52.998;9.116;2023-04-24T03:35:14;3.33;;;1.80;;
33327;SDS011;19692;52.998;9.116;2023-04-24T03:37:40;2.93;;;2.30;;
33327;SDS011;19692;52.998;9.116;2023-04-24T03:40:06;2.47;;;1.80;;
33327;SDS011;19692;52.998;9.116;2023-04-24T03:42:33;2.43;;;2.07;;
33327;SDS011;19692;52.998;9.116;2023-04-24T03:44:58;3.20;;;2.40;;
33327;SDS011;19692;52.998;9.116;2023-04-24T03:47:24;3.23;;;1.90;;
33327;SDS011;19692;52.998;9.116;2023-04-24T03:49:50;4.97;;;2.10;;
33327;SDS011;19692;52.998;9.116;2023-04-24T03:52:16;4.50;;;2.27;;
33327;SDS011;19692;52.998;9.116;2023-04-24T03:54:42;2.20;;;2.00;;
33327;SDS011;19692;52.998;9.116;2023-04-24T03:57:08;3.70;;;2.20;;
33327;SDS011;19692;52.998;9.116;2023-04-24T03:59:33;4.00;;;2.37;;
33327;SDS011;19692;52.998;9.116;2023-04-24T04:01:59;2.10;;;2.00;;
33327;SDS011;19692;52.998;9.116;2023-04-24T04:04:25;2.73;;;2.10;;
33327;SDS011;19692;52.998;9.116;2023-04-24T04:06:50;2.37;;;2.10;;
33327;SDS011;19692;52.998;9.116;2023-04-24T04:09:17;2.33;;;2.13;;
33327;SDS011;19692;52.998;9.116;2023-04-24T04:11:42;3.60;;;3.30;;
33327;SDS011;19692;52.998;9.116;2023-04-24T04:14:08;3.30;;;2.07;;
33327;SDS011;19692;52.998;9.116;2023-04-24T04:16:34;2.90;;;2.03;;
33327;SDS011;19692;52.998;9.116;2023-04-24T04:19:01;2.70;;;2.50;;
33327;SDS011;19692;52.998;9.116;2023-04-24T04:21:28;2.50;;;2.30;;
33327;SDS011;19692;52.998;9.116;2023-04-24T04:23:54;2.50;;;2.30;;
33327;SDS011;19692;52.998;9.116;2023-04-24T04:26:19;2.37;;;2.23;;
33327;SDS011;19692;52.998;9.116;2023-04-24T04:28:46;2.30;;;2.17;;
33327;SDS011;19692;52.998;9.116;2023-04-24T04:31:14;2.40;;;2.20;;
33327;SDS011;19692;52.998;9.116;2023-04-24T04:33:39;2.60;;;2.40;;
33327;SDS011;19692;52.998;9.116;2023-04-24T04:36:05;2.57;;;2.37;;
33327;SDS011;19692;52.998;9.116;2023-04-24T04:38:31;2.67;;;2.47;;
33327;SDS011;19692;52.998;9.116;2023-04-24T04:40:57;3.27;;;2.57;;
33327;SDS011;19692;52.998;9.116;2023-04-24T04:43:23;2.90;;;2.67;;
33327;SDS011;19692;52.998;9.116;2023-04-24T04:45:50;3.17;;;2.87;;
33327;SDS011;19692;52.998;9.116;2023-04-24T04:48:17;3.97;;;3.67;;
33327;SDS011;19692;52.998;9.116;2023-04-24T04:50:43;3.13;;;2.83;;
33327;SDS011;19692;52.998;9.116;2023-04-24T04:53:10;4.17;;;3.80;;
33327;SDS011;19692;52.998;9.116;2023-04-24T04:55:37;3.17;;;2.80;;
33327;SDS011;19692;52.998;9.116;2023-04-24T04:58:02;2.90;;;2.70;;
33327;SDS011;19692;52.998;9.116;2023-04-24T05:00:28;2.77;;;2.57;;
33327;SDS011;19692;52.998;9.116;2023-04-24T05:02:58;2.90;;;2.50;;
33327;SDS011;19692;52.998;9.116;2023-04-24T05:05:25;2.93;;;2.63;;
33327;SDS011;19692;52.998;9.116;2023-04-24T05:07:50;2.50;;;2.30;;
33327;SDS011;19692;52.998;9.116;2023-04-24T05:10:16;3.03;;;2.83;;
33327;SDS011;19692;52.998;9.116;2023-04-24T05:12:42;3.33;;;3.03;;
33327;SDS011;19692;52.998;9.116;2023-04-24T05:15:08;3.23;;;2.93;;
33327;SDS011;19692;52.998;9.116;2023-04-24T05:17:34;3.57;;;3.27;;
33327;SDS011;19692;52.998;9.116;2023-04-24T05:20:01;3.70;;;3.40;;
33327;SDS011;19692;52.998;9.116;2023-04-24T05:22:30;3.27;;;2.97;;
33327;SDS011;19692;52.998;9.116;2023-04-24T05:24:56;4.10;;;3.70;;
33327;SDS011;19692;52.998;9.116;2023-04-24T05:27:22;4.27;;;3.60;;
33327;SDS011;19692;52.998;9.116;2023-04-24T05:29:48;4.47;;;4.07;;
33327;SDS011;19692;52.998;9.116;2023-04-24T05:32:14;4.20;;;3.90;;
33327;SDS011;19692;52.998;9.116;2023-04-24T05:34:40;4.20;;;3.90;;
33327;SDS011;19692;52.998;9.116;2023-04-24T05:37:05;5.00;;;3.73;;
33327;SDS011;19692;52.998;9.116;2023-04-24T05:39:33;4.03;;;3.70;;
33327;SDS011;19692;52.998;9.116;2023-04-24T05:42:00;6.20;;;4.13;;
33327;SDS011;19692;52.998;9.116;2023-04-24T05:44:26;4.80;;;4.40;;
33327;SDS011;19692;52.998;9.116;2023-04-24T05:46:52;5.00;;;4.60;;
33327;SDS011;19692;52.998;9.116;2023-04-24T05:49:20;5.30;;;4.80;;
33327;SDS011;19692;52.998;9.116;2023-04-24T05:51:45;5.50;;;5.00;;
33327;SDS011;19692;52.998;9.116;2023-04-24T05:54:11;5.53;;;5.00;;
33327;SDS011;19692;52.998;9.116;2023-04-24T05:56:37;5.80;;;5.30;;
33327;SDS011;19692;52.998;9.116;2023-04-24T05:59:03;5.13;;;4.73;;
33327;SDS011;19692;52.998;9.116;2023-04-24T06:01:29;5.80;;;5.10;;
33327;SDS011;19692;52.998;9.116;2023-04-24T06:03:56;6.20;;;5.60;;
33327;SDS011;19692;52.998;9.116;2023-04-24T06:06:23;6.87;;;6.23;;
33327;SDS011;19692;52.998;9.116;2023-04-24T06:08:49;6.83;;;5.93;;
33327;SDS011;19692;52.998;9.116;2023-04-24T06:11:15;7.07;;;6.40;;
33327;SDS011;19692;52.998;9.116;2023-04-24T06:13:40;7.77;;;6.97;;
33327;SDS011;19692;52.998;9.116;2023-04-24T06:16:06;9.17;;;8.37;;
33327;SDS011;19692;52.998;9.116;2023-04-24T06:18:32;9.77;;;6.97;;
33327;SDS011;19692;52.998;9.116;2023-04-24T06:20:58;8.20;;;7.40;;
33327;SDS011;19692;52.998;9.116;2023-04-24T06:23:24;7.80;;;7.10;;
33327;SDS011;19692;52.998;9.116;2023-04-24T06:25:50;7.93;;;7.23;;
33327;SDS011;19692;52.998;9.116;2023-04-24T06:28:16;8.70;;;7.70;;
33327;SDS011;19692;52.998;9.116;2023-04-24T06:30:42;9.17;;;8.30;;
33327;SDS011;19692;52.998;9.116;2023-04-24T06:33:08;8.50;;;7.70;;
33327;SDS011;19692;52.998;9.116;2023-04-24T06:35:34;9.33;;;8.27;;
33327;SDS011;19692;52.998;9.116;2023-04-24T06:38:00;9.00;;;8.13;;
33327;SDS011;19692;52.998;9.116;2023-04-24T06:40:26;9.57;;;8.10;;
33327;SDS011;19692;52.998;9.116;2023-04-24T06:42:52;9.23;;;8.43;;
33327;SDS011;19692;52.998;9.116;2023-04-24T06:45:18;10.10;;;9.20;;
33327;SDS011;19692;52.998;9.116;2023-04-24T06:47:43;9.87;;;8.80;;
33327;SDS011;19692;52.998;9.116;2023-04-24T06:50:09;10.30;;;8.80;;
33327;SDS011;19692;52.998;9.116;2023-04-24T06:52:36;9.90;;;9.00;;
33327;SDS011;19692;52.998;9.116;2023-04-24T06:55:02;12.50;;;9.73;;
33327;SDS011;19692;52.998;9.116;2023-04-24T06:57:29;11.57;;;10.57;;
33327;SDS011;19692;52.998;9.116;2023-04-24T06:59:55;10.93;;;9.57;;
33327;SDS011;19692;52.998;9.116;2023-04-24T07:02:21;10.83;;;9.83;;
33327;SDS011;19692;52.998;9.116;2023-04-24T07:04:47;11.77;;;10.67;;
33327;SDS011;19692;52.998;9.116;2023-04-24T07:07:13;11.40;;;10.30;;
33327;SDS011;19692;52.998;9.116;2023-04-24T07:09:39;11.47;;;10.47;;
33327;SDS011;19692;52.998;9.116;2023-04-24T07:12:07;12.07;;;10.97;;
33327;SDS011;19692;52.998;9.116;2023-04-24T07:14:35;10.93;;;9.83;;
33327;SDS011;19692;52.998;9.116;2023-04-24T07:17:02;11.57;;;10.37;;
33327;SDS011;19692;52.998;9.116;2023-04-24T07:19:33;11.13;;;10.03;;
33327;SDS011;19692;52.998;9.116;2023-04-24T07:22:00;11.27;;;10.27;;
33327;SDS011;19692;52.998;9.116;2023-04-24T07:24:26;11.13;;;10.03;;
33327;SDS011;19692;52.998;9.116;2023-04-24T07:26:52;11.07;;;9.47;;
33327;SDS011;19692;52.998;9.116;2023-04-24T07:29:19;10.63;;;9.53;;
33327;SDS011;19692;52.998;9.116;2023-04-24T07:31:48;12.33;;;10.67;;
33327;SDS011;19692;52.998;9.116;2023-04-24T07:34:19;11.50;;;10.43;;
33327;SDS011;19692;52.998;9.116;2023-04-24T07:36:45;11.33;;;10.33;;
33327;SDS011;19692;52.998;9.116;2023-04-24T07:39:11;10.53;;;9.53;;
33327;SDS011;19692;52.998;9.116;2023-04-24T07:41:37;12.87;;;11.00;;
33327;SDS011;19692;52.998;9.116;2023-04-24T07:44:03;12.73;;;11.23;;
33327;SDS011;19692;52.998;9.116;2023-04-24T07:46:29;12.07;;;10.97;;
33327;SDS011;19692;52.998;9.116;2023-04-24T07:48:55;12.17;;;11.00;;
33327;SDS011;19692;52.998;9.116;2023-04-24T07:51:21;12.60;;;11.30;;
33327;SDS011;19692;52.998;9.116;2023-04-24T07:53:47;12.47;;;10.53;;
33327;SDS011;19692;52.998;9.116;2023-04-24T07:56:12;12.43;;;11.23;;
33327;SDS011;19692;52.998;9.116;2023-04-24T07:58:38;11.10;;;10.00;;
33327;SDS011;19692;52.998;9.116;2023-04-24T08:01:04;12.50;;;11.17;;
33327;SDS011;19692;52.998;9.116;2023-04-24T08:03:30;11.93;;;10.80;;
33327;SDS011;19692;52.998;9.116;2023-04-24T08:05:56;13.93;;;12.73;;
33327;SDS011;19692;52.998;9.116;2023-04-24T08:08:22;12.60;;;11.33;;
33327;SDS011;19692;52.998;9.116;2023-04-24T08:10:48;12.50;;;11.30;;
33327;SDS011;19692;52.998;9.116;2023-04-24T08:13:15;13.47;;;11.67;;
33327;SDS011;19692;52.998;9.116;2023-04-24T08:15:41;13.70;;;12.07;;
33327;SDS011;19692;52.998;9.116;2023-04-24T08:18:07;13.83;;;12.10;;
33327;SDS011;19692;52.998;9.116;2023-04-24T08:20:32;14.80;;;12.97;;
33327;SDS011;19692;52.998;9.116;2023-04-24T08:22:58;14.43;;;12.93;;
33327;SDS011;19692;52.998;9.116;2023-04-24T08:25:24;15.23;;;13.63;;
33327;SDS011;19692;52.998;9.116;2023-04-24T08:27:50;15.70;;;14.10;;
33327;SDS011;19692;52.998;9.116;2023-04-24T08:30:17;16.60;;;13.23;;
33327;SDS011;19692;52.998;9.116;2023-04-24T08:32:43;15.40;;;13.23;;
33327;SDS011;19692;52.998;9.116;2023-04-24T08:35:12;16.33;;;13.70;;
33327;SDS011;19692;52.998;9.116;2023-04-24T08:37:38;16.63;;;15.03;;
33327;SDS011;19692;52.998;9.116;2023-04-24T08:40:05;16.03;;;14.33;;
33327;SDS011;19692;52.998;9.116;2023-04-24T08:42:39;19.20;;;15.17;;
33327;SDS011;19692;52.998;9.116;2023-04-24T08:45:07;19.90;;;15.77;;
33327;SDS011;19692;52.998;9.116;2023-04-24T08:47:35;16.13;;;14.37;;
33327;SDS011;19692;52.998;9.116;2023-04-24T08:50:03;16.73;;;14.93;;
33327;SDS011;19692;52.998;9.116;2023-04-24T08:52:32;17.17;;;15.13;;
33327;SDS011;19692;52.998;9.116;2023-04-24T08:54:59;17.17;;;15.37;;
33327;SDS011;19692;52.998;9.116;2023-04-24T08:57:26;19.07;;;16.07;;
33327;SDS011;19692;52.998;9.116;2023-04-24T08:59:53;16.20;;;14.47;;
33327;SDS011;19692;52.998;9.116;2023-04-24T09:02:19;17.43;;;15.63;;
33327;SDS011;19692;52.998;9.116;2023-04-24T09:04:46;16.33;;;14.70;;
33327;SDS011;19692;52.998;9.116;2023-04-24T09:07:12;15.37;;;13.87;;
33327;SDS011;19692;52.998;9.116;2023-04-24T09:09:41;16.87;;;14.43;;
33327;SDS011;19692;52.998;9.116;2023-04-24T09:12:07;16.47;;;14.50;;
33327;SDS011;19692;52.998;9.116;2023-04-24T09:14:35;15.93;;;14.33;;
33327;SDS011;19692;52.998;9.116;2023-04-24T09:17:04;17.47;;;15.67;;
33327;SDS011;19692;52.998;9.116;2023-04-24T09:19:31;17.30;;;15.47;;
33327;SDS011;19692;52.998;9.116;2023-04-24T09:21:57;15.97;;;14.13;;
33327;SDS011;19692;52.998;9.116;2023-04-24T09:24:23;16.07;;;14.47;;
33327;SDS011;19692;52.998;9.116;2023-04-24T09:26:49;16.40;;;14.47;;
33327;SDS011;19692;52.998;9.116;2023-04-24T09:29:23;16.10;;;14.13;;
33327;SDS011;19692;52.998;9.116;2023-04-24T09:31:50;15.63;;;13.50;;
33327;SDS011;19692;52.998;9.116;2023-04-24T09:34:20;15.20;;;12.30;;
33327;SDS011;19692;52.998;9.116;2023-04-24T09:36:51;16.10;;;13.13;;
33327;SDS011;19692;52.998;9.116;2023-04-24T09:39:17;16.10;;;12.43;;
33327;SDS011;19692;52.998;9.116;2023-04-24T09:41:47;14.23;;;12.80;;
33327;SDS011;19692;52.998;9.116;2023-04-24T09:44:18;14.30;;;12.80;;
33327;SDS011;19692;52.998;9.116;2023-04-24T09:46:49;15.10;;;13.10;;
33327;SDS011;19692;52.998;9.116;2023-04-24T09:49:21;14.13;;;12.10;;
33327;SDS011;19692;52.998;9.116;2023-04-24T09:52:29;12.23;;;11.07;;
33327;SDS011;19692;52.998;9.116;2023-04-24T09:54:53;13.57;;;11.57;;
33327;SDS011;19692;52.998;9.116;2023-04-24T09:57:19;12.13;;;10.93;;
33327;SDS011;19692;52.998;9.116;2023-04-24T09:59:45;14.77;;;11.67;;
33327;SDS011;19692;52.998;9.116;2023-04-24T10:02:18;12.23;;;10.60;;
33327;SDS011;19692;52.998;9.116;2023-04-24T10:04:54;10.77;;;9.77;;
33327;SDS011;19692;52.998;9.116;2023-04-24T10:07:27;12.13;;;10.33;;
33327;SDS011;19692;52.998;9.116;2023-04-24T10:09:53;11.27;;;10.20;;
33327;SDS011;19692;52.998;9.116;2023-04-24T10:12:19;11.10;;;9.20;;
33327;SDS011;19692;52.998;9.116;2023-04-24T10:14:46;12.60;;;10.23;;
33327;SDS011;19692;52.998;9.116;2023-04-24T10:17:13;11.13;;;9.97;;
33327;SDS011;19692;52.998;9.116;2023-04-24T10:19:40;10.20;;;9.00;;
33327;SDS011;19692;52.998;9.116;2023-04-24T10:22:07;9.87;;;8.87;;
33327;SDS011;19692;52.998;9.116;2023-04-24T10:24:33;11.00;;;9.70;;
33327;SDS011;19692;52.998;9.116;2023-04-24T10:27:01;11.37;;;10.07;;
33327;SDS011;19692;52.998;9.116;2023-04-24T10:29:28;10.47;;;9.53;;
33327;SDS011;19692;52.998;9.116;2023-04-24T10:31:57;10.10;;;9.20;;
33327;SDS011;19692;52.998;9.116;2023-04-24T10:34:22;10.27;;;9.27;;
33327;SDS011;19692;52.998;9.116;2023-04-24T10:36:50;10.87;;;8.87;;
33327;SDS011;19692;52.998;9.116;2023-04-24T10:39:17;10.57;;;9.57;;
33327;SDS011;19692;52.998;9.116;2023-04-24T10:41:44;9.93;;;9.03;;
33327;SDS011;19692;52.998;9.116;2023-04-24T10:44:14;11.30;;;9.90;;
33327;SDS011;19692;52.998;9.116;2023-04-24T10:46:47;12.30;;;9.20;;
33327;SDS011;19692;52.998;9.116;2023-04-24T10:49:29;9.73;;;8.73;;
33327;SDS011;19692;52.998;9.116;2023-04-24T10:52:00;10.00;;;9.00;;
33327;SDS011;19692;52.998;9.116;2023-04-24T10:54:34;10.33;;;9.20;;
33327;SDS011;19692;52.998;9.116;2023-04-24T10:59:44;8.80;;;8.03;;
33327;SDS011;19692;52.998;9.116;2023-04-24T11:02:13;8.87;;;8.07;;
33327;SDS011;19692;52.998;9.116;2023-04-24T11:04:43;8.80;;;7.90;;
33327;SDS011;19692;52.998;9.116;2023-04-24T11:07:10;9.00;;;8.10;;
33327;SDS011;19692;52.998;9.116;2023-04-24T11:09:36;9.23;;;8.30;;
33327;SDS011;19692;52.998;9.116;2023-04-24T11:12:09;9.33;;;8.30;;
33327;SDS011;19692;52.998;9.116;2023-04-24T11:17:29;8.77;;;7.90;;
33327;SDS011;19692;52.998;9.116;2023-04-24T11:20:06;8.63;;;7.77;;
33327;SDS011;19692;52.998;9.116;2023-04-24T11:22:35;8.50;;;7.70;;
33327;SDS011;19692;52.998;9.116;2023-04-24T11:25:05;7.63;;;6.90;;
33327;SDS011;19692;52.998;9.116;2023-04-24T11:27:38;7.47;;;6.80;;
33327;SDS011;19692;52.998;9.116;2023-04-24T11:30:09;7.87;;;7.17;;
33327;SDS011;19692;52.998;9.116;2023-04-24T11:32:39;7.70;;;7.00;;
33327;SDS011;19692;52.998;9.116;2023-04-24T11:38:05;8.40;;;7.60;;
33327;SDS011;19692;52.998;9.116;2023-04-24T11:40:32;8.37;;;7.63;;
33327;SDS011;19692;52.998;9.116;2023-04-24T11:42:59;8.17;;;7.37;;
33327;SDS011;19692;52.998;9.116;2023-04-24T11:45:26;8.53;;;7.73;;
33327;SDS011;19692;52.998;9.116;2023-04-24T11:47:55;7.93;;;7.13;;
33327;SDS011;19692;52.998;9.116;2023-04-24T11:50:21;7.93;;;7.03;;
33327;SDS011;19692;52.998;9.116;2023-04-24T11:52:50;7.67;;;6.97;;
33327;SDS011;19692;52.998;9.116;2023-04-24T11:57:44;9.47;;;8.67;;
33327;SDS011;19692;52.998;9.116;2023-04-24T12:00:17;7.87;;;7.17;;
33327;SDS011;19692;52.998;9.116;2023-04-24T12:02:45;9.63;;;8.63;;
33327;SDS011;19692;52.998;9.116;2023-04-24T12:07:48;7.93;;;7.23;;
33327;SDS011;19692;52.998;9.116;2023-04-24T12:10:19;7.70;;;6.93;;
33327;SDS011;19692;52.998;9.116;2023-04-24T12:12:46;7.17;;;6.57;;
33327;SDS011;19692;52.998;9.116;2023-04-24T12:15:12;7.80;;;6.90;;
33327;SDS011;19692;52.998;9.116;2023-04-24T12:17:40;6.40;;;5.90;;
33327;SDS011;19692;52.998;9.116;2023-04-24T12:20:07;6.90;;;6.30;;
33327;SDS011;19692;52.998;9.116;2023-04-24T12:22:51;6.17;;;5.67;;
33327;SDS011;19692;52.998;9.116;2023-04-24T12:25:20;5.53;;;5.13;;
33327;SDS011;19692;52.998;9.116;2023-04-24T12:27:52;5.70;;;5.20;;
33327;SDS011;19692;52.998;9.116;2023-04-24T15:42:21;7.57;;;5.93;;
33327;SDS011;19692;52.998;9.116;2023-04-24T15:44:47;11.13;;;7.30;;
33327;SDS011;19692;52.998;9.116;2023-04-24T15:47:13;11.30;;;5.80;;
33327;SDS011;19692;52.998;9.116;2023-04-24T15:49:39;8.87;;;6.00;;
33327;SDS011;19692;52.998;9.116;2023-04-24T15:52:05;10.50;;;6.70;;
33327;SDS011;19692;52.998;9.116;2023-04-24T15:54:31;9.00;;;6.43;;
33327;SDS011;19692;52.998;9.116;2023-04-24T15:56:57;8.13;;;5.93;;
33327;SDS011;19692;52.998;9.116;2023-04-24T15:59:23;6.60;;;5.93;;
33327;SDS011;19692;52.998;9.116;2023-04-24T16:01:48;9.57;;;5.87;;
33327;SDS011;19692;52.998;9.116;2023-04-24T16:04:14;9.53;;;5.70;;
33327;SDS011;19692;52.998;9.116;2023-04-24T16:06:40;8.70;;;5.80;;
33327;SDS011;19692;52.998;9.116;2023-04-24T16:09:06;9.60;;;7.37;;
33327;SDS011;19692;52.998;9.116;2023-04-24T16:11:36;5.87;;;4.70;;
33327;SDS011;19692;52.998;9.116;2023-04-24T16:14:03;8.80;;;4.70;;
33327;SDS011;19692;52.998;9.116;2023-04-24T16:16:32;10.40;;;5.60;;
33327;SDS011;19692;52.998;9.116;2023-04-24T16:18:58;13.07;;;5.30;;
33327;SDS011;19692;52.998;9.116;2023-04-24T16:21:24;7.17;;;5.07;;
33327;SDS011;19692;52.998;9.116;2023-04-24T16:23:50;10.37;;;5.50;;
33327;SDS011;19692;52.998;9.116;2023-04-24T16:26:19;9.07;;;6.13;;
33327;SDS011;19692;52.998;9.116;2023-04-24T16:28:45;9.30;;;5.70;;
33327;SDS011;19692;52.998;9.116;2023-04-24T16:31:11;11.57;;;5.53;;
33327;SDS011;19692;52.998;9.116;2023-04-24T16:33:37;8.40;;;5.57;;
33327;SDS011;19692;52.998;9.116;2023-04-24T16:36:03;6.83;;;4.80;;
33327;SDS011;19692;52.998;9.116;2023-04-24T16:38:29;7.80;;;5.97;;
33327;SDS011;19692;52.998;9.116;2023-04-24T16:40:55;8.33;;;5.47;;
33327;SDS011;19692;52.998;9.116;2023-04-24T16:43:21;10.40;;;4.60;;
33327;SDS011;19692;52.998;9.116;2023-04-24T16:45:46;8.57;;;4.80;;
33327;SDS011;19692;52.998;9.116;2023-04-24T16:48:12;8.03;;;5.00;;
33327;SDS011;19692;52.998;9.116;2023-04-24T16:50:38;8.20;;;4.40;;
33327;SDS011;19692;52.998;9.116;2023-04-24T16:53:04;22.93;;;16.17;;
33327;SDS011;19692;52.998;9.116;2023-04-24T16:55:29;7.63;;;5.13;;
33327;SDS011;19692;52.998;9.116;2023-04-24T16:57:55;9.03;;;4.80;;
33327;SDS011;19692;52.998;9.116;2023-04-24T17:00:21;8.77;;;5.20;;
33327;SDS011;19692;52.998;9.116;2023-04-24T17:02:47;8.60;;;5.40;;
33327;SDS011;19692;52.998;9.116;2023-04-24T17:05:14;11.47;;;6.43;;
33327;SDS011;19692;52.998;9.116;2023-04-24T17:07:40;11.60;;;5.23;;
33327;SDS011;19692;52.998;9.116;2023-04-24T17:10:06;7.43;;;5.20;;
33327;SDS011;19692;52.998;9.116;2023-04-24T17:12:33;6.23;;;5.17;;
33327;SDS011;19692;52.998;9.116;2023-04-24T17:14:59;6.97;;;4.47;;
33327;SDS011;19692;52.998;9.116;2023-04-24T17:17:25;6.27;;;4.77;;
33327;SDS011;19692;52.998;9.116;2023-04-24T17:19:51;7.27;;;4.87;;
33327;SDS011;19692;52.998;9.116;2023-04-24T17:22:19;5.97;;;4.43;;
33327;SDS011;19692;52.998;9.116;2023-04-24T17:24:45;5.87;;;4.70;;
33327;SDS011;19692;52.998;9.116;2023-04-24T17:27:11;7.77;;;4.70;;
33327;SDS011;19692;52.998;9.116;2023-04-24T17:29:37;5.47;;;4.93;;
33327;SDS011;19692;52.998;9.116;2023-04-24T17:32:04;6.33;;;5.20;;
33327;SDS011;19692;52.998;9.116;2023-04-24T17:34:30;6.07;;;4.67;;
33327;SDS011;19692;52.998;9.116;2023-04-24T17:36:55;9.10;;;4.70;;
33327;SDS011;19692;52.998;9.116;2023-04-24T17:39:21;5.67;;;4.00;;
33327;SDS011;19692;52.998;9.116;2023-04-24T17:41:47;5.57;;;4.40;;
33327;SDS011;19692;52.998;9.116;2023-04-24T17:44:13;5.40;;;3.87;;
33327;SDS011;19692;52.998;9.116;2023-04-24T17:46:38;7.13;;;4.50;;
33327;SDS011;19692;52.998;9.116;2023-04-24T17:49:04;6.50;;;5.10;;
33327;SDS011;19692;52.998;9.116;2023-04-24T17:51:30;7.07;;;3.83;;
33327;SDS011;19692;52.998;9.116;2023-04-24T17:53:56;9.20;;;4.30;;
33327;SDS011;19692;52.998;9.116;2023-04-24T17:56:22;6.20;;;3.83;;
33327;SDS011;19692;52.998;9.116;2023-04-24T17:58:49;6.73;;;3.93;;
33327;SDS011;19692;52.998;9.116;2023-04-24T18:01:16;8.53;;;4.00;;
33327;SDS011;19692;52.998;9.116;2023-04-24T18:03:41;6.10;;;3.73;;